Time;durP1;ratioP1;P1;durP2;ratioP2;P2;SDS_P1;SDS_P2;PMS_P1;PMS_P2;Temp;Humidity;BMP_temperature;BMP_pressure;BME280_temperature;BME280_humidity;BME280_pressure;Samples;Min_cycle;Max_cycle;Signal;HPM_P1;HPM_P2
2023/08/09 00:02:18;;;;;;;0.00;0.00;;;17.40;99.90;;;;;;5094694;28;20266;-59
2023/08/09 00:04:43;;;;;;;0.00;0.00;;;17.30;99.90;;;;;;5094935;28;20639;-59
2023/08/09 00:07:09;;;;;;;0.00;0.00;;;17.20;99.90;;;;;;5094801;28;20222;-59
2023/08/09 00:09:35;;;;;;;0.00;0.00;;;17.10;99.90;;;;;;5094735;28;20189;-59
2023/08/09 00:12:00;;;;;;;0.00;0.00;;;17.10;99.90;;;;;;5094643;28;20272;-59
2023/08/09 00:14:26;;;;;;;0.00;0.00;;;17.10;99.90;;;;;;5094695;28;20176;-59
2023/08/09 00:16:51;;;;;;;0.00;0.00;;;17.10;99.90;;;;;;5094495;28;20215;-59
2023/08/09 00:19:17;;;;;;;0.00;0.00;;;17.10;99.90;;;;;;5094416;28;20271;-59
2023/08/09 00:21:42;;;;;;;0.00;0.00;;;17.10;99.90;;;;;;5094467;28;20222;-59
2023/08/09 00:24:08;;;;;;;0.00;0.00;;;17.10;99.90;;;;;;5094418;28;20183;-59
2023/08/09 00:26:33;;;;;;;0.00;0.00;;;17.10;99.90;;;;;;5094292;28;20270;-59
2023/08/09 00:28:59;;;;;;;0.00;0.00;;;17.10;99.90;;;;;;5094062;28;20220;-59
2023/08/09 00:31:24;;;;;;;0.00;0.00;;;17.10;99.90;;;;;;5094305;28;20177;-59
2023/08/09 00:33:50;;;;;;;0.00;0.00;;;17.10;99.90;;;;;;5094448;28;20182;-59
2023/08/09 00:36:15;;;;;;;0.00;0.00;;;17.10;99.90;;;;;;5094073;28;20214;-59
2023/08/09 00:38:42;;;;;;;0.00;0.00;;;17.10;99.90;;;;;;5094292;28;20176;-59
2023/08/09 00:41:07;;;;;;;0.00;0.00;;;17.10;99.90;;;;;;5094025;28;20172;-59
2023/08/09 00:43:33;;;;;;;0.00;0.00;;;17.10;99.90;;;;;;5094211;28;20184;-59
2023/08/09 00:45:59;;;;;;;0.00;0.00;;;17.10;99.90;;;;;;5093134;28;20176;-59
2023/08/09 00:48:24;;;;;;;0.00;0.00;;;17.00;99.90;;;;;;5094085;28;20212;-59
2023/08/09 00:50:50;;;;;;;0.00;0.00;;;17.10;99.90;;;;;;5094090;28;20208;-59
2023/08/09 00:53:16;;;;;;;0.00;0.00;;;17.00;99.90;;;;;;5093734;28;20255;-59
2023/08/09 00:55:42;;;;;;;0.00;0.00;;;17.10;99.90;;;;;;5093918;28;20639;-59
2023/08/09 00:58:08;;;;;;;0.00;0.00;;;17.10;99.90;;;;;;5093757;28;20211;-59
2023/08/09 01:00:33;;;;;;;0.00;0.00;;;17.10;99.90;;;;;;5093777;28;20184;-59
2023/08/09 01:02:59;;;;;;;0.00;0.00;;;17.00;99.90;;;;;;5093745;28;20271;-59
2023/08/09 01:05:32;;;;;;;0.00;0.00;;;17.00;99.90;;;;;;5093709;28;20181;-59
2023/08/09 01:08:11;;;;;;;0.00;0.00;;;17.00;99.90;;;;;;5093472;28;20190;-59
2023/08/09 01:10:49;;;;;;;0.00;0.00;;;17.00;99.90;;;;;;5093599;28;20255;-59
2023/08/09 01:13:19;;;;;;;0.00;0.00;;;17.00;99.90;;;;;;5093388;28;20184;-59
2023/08/09 01:15:46;;;;;;;0.00;0.00;;;17.00;99.90;;;;;;5093512;28;20212;-59
2023/08/09 01:18:13;;;;;;;0.00;0.00;;;17.00;99.90;;;;;;5093422;28;20668;-59
2023/08/09 01:20:39;;;;;;;0.00;0.00;;;17.00;99.90;;;;;;5093479;28;20237;-59
2023/08/09 01:23:18;;;;;;;0.00;0.00;;;17.00;99.90;;;;;;5093323;28;20187;-59
2023/08/09 01:25:44;;;;;;;0.00;0.00;;;17.00;99.90;;;;;;5093415;28;20172;-59
2023/08/09 01:28:10;;;;;;;0.00;0.00;;;17.00;99.90;;;;;;5093110;28;20223;-59
2023/08/09 01:30:37;;;;;;;0.00;0.00;;;17.00;99.90;;;;;;5093112;28;20180;-59
2023/08/09 01:33:03;;;;;;;0.00;0.00;;;17.00;99.90;;;;;;5093210;28;20164;-59
2023/08/09 01:35:37;;;;;;;0.00;0.00;;;16.90;99.90;;;;;;5093164;28;20172;-59
2023/08/09 01:38:10;;;;;;;0.00;0.00;;;17.00;99.90;;;;;;5093076;28;20698;-59
2023/08/09 01:40:39;;;;;;;0.00;0.00;;;17.00;99.90;;;;;;5092929;28;20182;-59
2023/08/09 01:43:05;;;;;;;0.00;0.00;;;17.00;99.90;;;;;;5092870;28;20198;-59
2023/08/09 01:45:31;;;;;;;0.03;0.03;;;17.00;99.90;;;;;;5093079;28;20176;-59
2023/08/09 01:47:56;;;;;;;0.00;0.00;;;17.00;99.90;;;;;;5092803;28;20184;-59
2023/08/09 01:50:24;;;;;;;0.00;0.00;;;17.00;99.90;;;;;;5092830;28;20176;-59
2023/08/09 01:52:55;;;;;;;0.00;0.00;;;17.00;99.90;;;;;;5092909;28;20187;-59
2023/08/09 01:55:22;;;;;;;0.00;0.00;;;17.00;99.90;;;;;;5093091;28;20182;-59
2023/08/09 01:57:48;;;;;;;0.00;0.00;;;17.00;99.90;;;;;;5092544;28;20265;-59
2023/08/09 02:00:17;;;;;;;0.00;0.00;;;17.00;99.90;;;;;;5092451;28;20183;-59
2023/08/09 02:02:43;;;;;;;0.00;0.00;;;17.00;99.90;;;;;;5092682;28;20224;-59
2023/08/09 02:05:09;;;;;;;0.00;0.00;;;17.00;99.90;;;;;;5092596;28;20168;-59
2023/08/09 02:07:34;;;;;;;0.00;0.00;;;17.00;99.90;;;;;;5092367;28;20202;-59
2023/08/09 02:10:00;;;;;;;0.00;0.00;;;16.90;99.90;;;;;;5092545;28;20180;-59
2023/08/09 02:12:25;;;;;;;0.00;0.00;;;16.90;99.90;;;;;;5092487;28;20172;-59
2023/08/09 02:14:51;;;;;;;0.25;0.10;;;16.80;99.90;;;;;;5092566;28;20203;-59
2023/08/09 02:17:17;;;;;;;0.00;0.00;;;16.80;99.90;;;;;;5092244;28;20242;-59
2023/08/09 02:19:42;;;;;;;0.00;0.00;;;16.70;99.90;;;;;;5092686;28;20172;-59
2023/08/09 02:22:10;;;;;;;0.00;0.00;;;16.70;99.90;;;;;;5092334;28;20187;-59
2023/08/09 02:24:36;;;;;;;0.00;0.00;;;16.60;99.90;;;;;;5092215;28;20196;-59
2023/08/09 02:27:01;;;;;;;0.00;0.00;;;16.60;99.90;;;;;;5092250;28;20200;-59
2023/08/09 02:29:27;;;;;;;0.00;0.00;;;16.60;99.90;;;;;;5092043;28;20230;-59
2023/08/09 02:31:52;;;;;;;0.00;0.00;;;16.60;99.90;;;;;;5092170;28;20611;-59
2023/08/09 02:34:19;;;;;;;0.00;0.00;;;16.60;99.90;;;;;;5092089;28;20180;-59
2023/08/09 02:36:45;;;;;;;0.00;0.00;;;16.60;99.90;;;;;;5092099;28;20204;-59
2023/08/09 02:39:10;;;;;;;0.00;0.00;;;16.60;99.90;;;;;;5092067;28;20194;-59
2023/08/09 02:41:37;;;;;;;0.00;0.00;;;16.60;99.90;;;;;;5092041;28;20172;-59
2023/08/09 02:44:03;;;;;;;0.00;0.00;;;16.60;99.90;;;;;;5091963;28;20168;-59
2023/08/09 02:46:29;;;;;;;0.00;0.00;;;16.60;99.90;;;;;;5092097;28;20715;-59
2023/08/09 02:48:55;;;;;;;0.00;0.00;;;16.60;99.90;;;;;;5091872;28;20175;-59
2023/08/09 02:51:20;;;;;;;0.00;0.00;;;16.60;99.90;;;;;;5091868;28;20192;-59
2023/08/09 02:54:03;;;;;;;0.00;0.00;;;16.60;99.90;;;;;;5091859;28;20255;-59
2023/08/09 02:56:30;;;;;;;0.00;0.00;;;16.60;99.90;;;;;;5091783;28;20663;-59
2023/08/09 02:58:56;;;;;;;0.10;0.10;;;16.60;99.90;;;;;;5091661;28;20222;-60
2023/08/09 03:01:22;;;;;;;0.00;0.00;;;16.60;99.90;;;;;;5091867;28;20255;-59
2023/08/09 03:03:52;;;;;;;0.00;0.00;;;16.60;99.90;;;;;;5091854;28;20263;-59
2023/08/09 03:06:20;;;;;;;0.00;0.00;;;16.60;99.90;;;;;;5091639;28;20179;-59
2023/08/09 03:08:46;;;;;;;0.00;0.00;;;16.60;99.90;;;;;;5093307;28;20184;-59
2023/08/09 03:11:12;;;;;;;0.20;0.20;;;16.60;99.90;;;;;;5095912;28;20168;-59
2023/08/09 03:13:38;;;;;;;0.00;0.00;;;16.60;99.90;;;;;;5095782;28;20176;-59
2023/08/09 03:16:04;;;;;;;0.00;0.00;;;16.60;99.90;;;;;;5095703;28;20279;-59
2023/08/09 03:18:29;;;;;;;0.00;0.00;;;16.50;99.90;;;;;;5094621;28;20180;-59
2023/08/09 03:20:55;;;;;;;0.00;0.00;;;16.50;99.90;;;;;;5095734;28;20215;-59
2023/08/09 03:23:20;;;;;;;0.00;0.00;;;16.50;99.90;;;;;;5095680;28;20172;-60
2023/08/09 03:25:46;;;;;;;0.00;0.00;;;16.50;99.90;;;;;;5095674;28;20251;-59
2023/08/09 03:28:11;;;;;;;0.00;0.00;;;16.50;99.90;;;;;;5095351;28;20231;-59
2023/08/09 03:30:37;;;;;;;0.00;0.00;;;16.50;99.90;;;;;;5095550;28;20176;-59
2023/08/09 03:33:04;;;;;;;0.00;0.00;;;16.50;99.90;;;;;;5095594;28;20183;-59
2023/08/09 03:35:29;;;;;;;0.08;0.08;;;16.40;99.90;;;;;;5095544;28;20210;-59
2023/08/09 03:37:55;;;;;;;0.00;0.00;;;16.40;99.90;;;;;;5095399;28;20184;-59
2023/08/09 03:40:21;;;;;;;0.00;0.00;;;16.40;99.90;;;;;;5095483;28;20179;-59
2023/08/09 03:42:46;;;;;;;0.00;0.00;;;16.40;99.90;;;;;;5095408;28;20176;-59
2023/08/09 03:45:12;;;;;;;0.00;0.00;;;16.50;99.90;;;;;;5095322;28;20172;-60
2023/08/09 03:47:38;;;;;;;0.00;0.00;;;16.50;99.90;;;;;;5095286;28;20627;-59
2023/08/09 03:50:07;;;;;;;0.00;0.00;;;16.40;99.90;;;;;;5095178;28;20534;-59
2023/08/09 03:52:33;;;;;;;0.00;0.00;;;16.40;99.90;;;;;;5095180;28;20576;-59
2023/08/09 03:54:59;;;;;;;0.00;0.00;;;16.40;99.90;;;;;;5095100;28;20213;-59
2023/08/09 03:57:24;;;;;;;0.00;0.00;;;16.40;99.90;;;;;;5094972;28;20244;-59
2023/08/09 03:59:50;;;;;;;0.00;0.00;;;16.30;99.90;;;;;;5095046;28;20176;-59
2023/08/09 04:02:16;;;;;;;0.00;0.00;;;16.30;99.90;;;;;;5094836;28;20180;-59
2023/08/09 04:04:41;;;;;;;0.00;0.00;;;16.30;99.90;;;;;;5095009;28;20194;-59
2023/08/09 04:07:07;;;;;;;0.00;0.00;;;16.40;99.90;;;;;;5094865;28;20184;-59
2023/08/09 04:09:33;;;;;;;0.00;0.00;;;16.40;99.90;;;;;;5094974;28;20777;-59
2023/08/09 04:11:59;;;;;;;0.00;0.00;;;16.40;99.90;;;;;;5094945;28;20182;-59
2023/08/09 04:14:25;;;;;;;0.00;0.00;;;16.30;99.90;;;;;;5094381;28;20180;-59
2023/08/09 04:16:51;;;;;;;0.00;0.00;;;16.30;99.90;;;;;;5094516;28;20223;-59
2023/08/09 04:19:17;;;;;;;0.22;0.22;;;16.30;99.90;;;;;;5094073;28;20180;-59
2023/08/09 04:21:42;;;;;;;0.00;0.00;;;16.30;99.90;;;;;;5093840;28;20219;-59
2023/08/09 04:24:10;;;;;;;0.00;0.00;;;16.30;99.90;;;;;;5094566;28;20168;-59
2023/08/09 04:26:36;;;;;;;0.00;0.00;;;16.20;99.90;;;;;;5094461;28;20184;-59
2023/08/09 04:29:02;;;;;;;0.00;0.00;;;16.20;99.90;;;;;;5094347;28;20251;-59
2023/08/09 04:31:28;;;;;;;0.00;0.00;;;16.20;99.90;;;;;;5094494;28;20180;-58
2023/08/09 04:33:54;;;;;;;0.00;0.00;;;16.20;99.90;;;;;;5094346;28;20172;-59
2023/08/09 04:36:20;;;;;;;0.00;0.00;;;16.20;99.90;;;;;;5094220;28;20265;-59
2023/08/09 04:38:45;;;;;;;0.00;0.00;;;16.20;99.90;;;;;;5093834;28;20545;-59
2023/08/09 04:41:12;;;;;;;0.00;0.00;;;16.20;99.90;;;;;;5093756;28;20180;-59
2023/08/09 04:43:42;;;;;;;0.00;0.00;;;16.20;99.90;;;;;;5093885;28;20176;-59
2023/08/09 04:46:08;;;;;;;0.00;0.00;;;16.20;99.90;;;;;;5093750;28;20172;-59
2023/08/09 04:48:33;;;;;;;0.00;0.00;;;16.20;99.90;;;;;;5093708;28;20686;-59
2023/08/09 04:50:59;;;;;;;0.00;0.00;;;16.20;99.90;;;;;;5093702;28;20181;-59
2023/08/09 04:53:24;;;;;;;0.00;0.00;;;16.30;99.90;;;;;;5093076;28;20179;-59
2023/08/09 04:55:50;;;;;;;0.00;0.00;;;16.30;99.90;;;;;;5093322;28;20172;-59
2023/08/09 04:58:17;;;;;;;0.03;0.00;;;16.30;99.90;;;;;;5093294;28;20183;-59
2023/08/09 05:00:42;;;;;;;0.00;0.00;;;16.40;99.90;;;;;;5093385;28;20293;-59
2023/08/09 05:03:08;;;;;;;0.20;0.10;;;16.50;99.90;;;;;;5093339;28;20663;-59
2023/08/09 05:05:33;;;;;;;0.00;0.00;;;16.50;99.90;;;;;;5093302;28;20172;-59
2023/08/09 05:07:59;;;;;;;0.00;0.00;;;16.60;99.90;;;;;;5093299;28;20180;-59
2023/08/09 05:10:25;;;;;;;0.00;0.00;;;16.70;99.90;;;;;;5093081;28;20168;-59
2023/08/09 05:12:50;;;;;;;0.00;0.00;;;16.90;99.90;;;;;;5093168;28;20180;-59
2023/08/09 05:15:16;;;;;;;0.00;0.00;;;17.00;99.90;;;;;;5093031;28;20233;-59
2023/08/09 05:17:42;;;;;;;0.00;0.00;;;17.10;99.90;;;;;;5093052;28;20253;-59
2023/08/09 05:20:08;;;;;;;0.00;0.00;;;17.20;99.90;;;;;;5092961;28;20168;-59
2023/08/09 05:22:33;;;;;;;0.00;0.00;;;17.30;99.90;;;;;;5092890;28;20175;-59
2023/08/09 05:24:59;;;;;;;0.00;0.00;;;17.40;99.90;;;;;;5091634;28;20662;-59
2023/08/09 05:27:25;;;;;;;0.00;0.00;;;17.50;99.90;;;;;;5093024;28;20260;-59
2023/08/09 05:29:51;;;;;;;0.00;0.00;;;17.60;99.90;;;;;;5092774;28;20296;-59
2023/08/09 05:32:16;;;;;;;0.00;0.00;;;17.70;99.90;;;;;;5092402;28;20184;-59
2023/08/09 05:34:42;;;;;;;0.00;0.00;;;18.00;99.90;;;;;;5092969;28;20267;-59
2023/08/09 05:37:07;;;;;;;0.00;0.00;;;18.10;99.90;;;;;;5092760;28;20208;-59
2023/08/09 05:39:33;;;;;;;0.00;0.00;;;18.30;99.90;;;;;;5092629;28;20176;-59
2023/08/09 05:41:59;;;;;;;0.00;0.00;;;18.40;99.90;;;;;;5092607;28;20265;-59
2023/08/09 05:44:25;;;;;;;0.00;0.00;;;18.50;99.90;;;;;;5092518;28;20627;-59
2023/08/09 05:46:51;;;;;;;0.03;0.03;;;18.60;99.90;;;;;;5092595;28;20180;-60
2023/08/09 05:49:16;;;;;;;0.10;0.10;;;18.80;99.90;;;;;;5092278;28;20203;-60
2023/08/09 05:51:42;;;;;;;0.00;0.00;;;19.00;99.90;;;;;;5092474;28;20178;-59
2023/08/09 05:54:08;;;;;;;0.00;0.00;;;19.00;99.90;;;;;;5092310;28;20229;-60
2023/08/09 05:56:34;;;;;;;0.00;0.00;;;19.00;99.90;;;;;;5092101;28;20219;-59
2023/08/09 05:58:59;;;;;;;0.00;0.00;;;18.90;99.90;;;;;;5092299;28;20180;-60
2023/08/09 06:01:25;;;;;;;0.00;0.00;;;18.80;99.90;;;;;;5092203;28;20233;-60
2023/08/09 06:03:50;;;;;;;0.00;0.00;;;18.60;99.90;;;;;;5092154;28;20651;-60
2023/08/09 06:06:16;;;;;;;0.00;0.00;;;18.50;99.90;;;;;;5090740;28;20201;-60
2023/08/09 06:08:42;;;;;;;0.00;0.00;;;18.40;99.90;;;;;;5092103;28;20263;-59
2023/08/09 06:11:07;;;;;;;0.00;0.00;;;18.30;99.90;;;;;;5091865;28;20175;-59
2023/08/09 06:13:33;;;;;;;0.00;0.00;;;18.20;99.90;;;;;;5091912;28;20250;-59
2023/08/09 06:15:58;;;;;;;0.00;0.00;;;18.20;99.90;;;;;;5091707;28;20192;-59
2023/08/09 06:18:24;;;;;;;0.88;0.13;;;18.10;99.90;;;;;;5091703;28;20196;-59
2023/08/09 06:20:51;;;;;;;0.00;0.00;;;18.10;99.90;;;;;;5091902;28;20176;-59
2023/08/09 06:23:16;;;;;;;0.00;0.00;;;18.10;99.90;;;;;;5091793;28;20678;-59
2023/08/09 06:25:42;;;;;;;0.00;0.00;;;18.00;99.90;;;;;;5091862;28;20176;-59
2023/08/09 06:28:08;;;;;;;0.00;0.00;;;18.00;99.90;;;;;;5091355;28;20265;-59
2023/08/09 06:30:34;;;;;;;0.00;0.00;;;18.00;99.90;;;;;;5091530;28;20259;-59
2023/08/09 06:32:59;;;;;;;0.00;0.00;;;18.00;99.90;;;;;;5091907;28;20199;-59
2023/08/09 06:35:25;;;;;;;0.00;0.00;;;18.00;99.90;;;;;;5091820;28;20627;-59
2023/08/09 06:37:51;;;;;;;0.00;0.00;;;18.10;99.90;;;;;;5091676;28;20602;-59
2023/08/09 06:40:17;;;;;;;0.00;0.00;;;18.10;99.90;;;;;;5091696;28;20180;-59
2023/08/09 06:42:43;;;;;;;0.00;0.00;;;18.10;99.90;;;;;;5091467;28;20191;-59
2023/08/09 06:45:10;;;;;;;0.00;0.00;;;18.20;99.90;;;;;;5091835;28;20196;-59
2023/08/09 06:47:35;;;;;;;0.00;0.00;;;18.20;99.90;;;;;;5091973;28;20207;-59
2023/08/09 06:50:04;;;;;;;0.00;0.00;;;18.10;99.90;;;;;;5091987;28;20171;-59
2023/08/09 06:52:33;;;;;;;0.00;0.00;;;18.10;99.90;;;;;;5090739;28;20176;-59
2023/08/09 06:55:00;;;;;;;0.00;0.00;;;18.10;99.90;;;;;;5091969;28;20172;-59
2023/08/09 06:57:26;;;;;;;0.00;0.00;;;18.10;99.90;;;;;;5091628;28;20250;-59
2023/08/09 06:59:53;;;;;;;0.00;0.00;;;18.10;99.90;;;;;;5091770;28;20211;-59
2023/08/09 07:02:20;;;;;;;0.00;0.00;;;18.10;99.90;;;;;;5091792;28;20183;-59
2023/08/09 07:04:45;;;;;;;0.00;0.00;;;18.10;99.90;;;;;;5091774;28;20266;-59
2023/08/09 07:07:11;;;;;;;0.00;0.00;;;18.10;99.90;;;;;;5091724;28;20271;-59
2023/08/09 07:09:36;;;;;;;0.00;0.00;;;18.10;99.90;;;;;;5091699;28;20188;-59
2023/08/09 07:12:02;;;;;;;0.00;0.00;;;18.10;99.90;;;;;;5091737;28;20221;-59
2023/08/09 07:14:28;;;;;;;0.10;0.10;;;18.10;99.90;;;;;;5091846;28;20168;-59
2023/08/09 07:16:53;;;;;;;0.00;0.00;;;18.10;99.90;;;;;;5091545;28;20211;-59
2023/08/09 07:19:19;;;;;;;0.00;0.00;;;18.10;99.90;;;;;;5091519;28;20641;-59
2023/08/09 07:21:44;;;;;;;0.00;0.00;;;18.00;99.90;;;;;;5091772;28;20184;-58
2023/08/09 07:24:10;;;;;;;0.00;0.00;;;18.00;99.90;;;;;;5091601;28;20543;-59
2023/08/09 07:26:35;;;;;;;0.00;0.00;;;17.90;99.90;;;;;;5091548;28;20180;-59
2023/08/09 07:29:01;;;;;;;0.00;0.00;;;17.90;99.90;;;;;;5091474;28;20220;-59
2023/08/09 07:31:26;;;;;;;0.00;0.00;;;17.90;99.90;;;;;;5091549;28;20176;-59
2023/08/09 07:33:52;;;;;;;0.20;0.20;;;17.90;99.90;;;;;;5091510;28;20263;-59
2023/08/09 07:36:18;;;;;;;0.00;0.00;;;17.90;99.90;;;;;;5091365;28;20200;-59
2023/08/09 07:38:44;;;;;;;0.00;0.00;;;17.90;99.90;;;;;;5091561;28;20204;-59
2023/08/09 07:41:10;;;;;;;0.00;0.00;;;17.80;99.90;;;;;;5091431;28;20619;-59
2023/08/09 07:43:36;;;;;;;0.00;0.00;;;17.80;99.90;;;;;;5091491;28;20191;-59
2023/08/09 07:46:05;;;;;;;0.00;0.00;;;17.70;99.90;;;;;;5091479;28;20263;-59
2023/08/09 07:48:31;;;;;;;0.00;0.00;;;17.70;99.90;;;;;;5091404;28;20339;-59
2023/08/09 07:50:57;;;;;;;0.00;0.00;;;17.70;99.90;;;;;;5091436;28;20273;-59
2023/08/09 07:53:22;;;;;;;0.00;0.00;;;17.70;99.90;;;;;;5091385;28;20271;-59
2023/08/09 07:55:48;;;;;;;0.00;0.00;;;17.70;99.90;;;;;;5094294;28;20177;-59
2023/08/09 07:58:14;;;;;;;0.00;0.00;;;17.70;99.90;;;;;;5094845;28;20184;-59
2023/08/09 08:00:39;;;;;;;0.00;0.00;;;17.70;99.90;;;;;;5095044;28;20176;-59
2023/08/09 08:03:05;;;;;;;0.00;0.00;;;17.70;99.90;;;;;;5095006;28;20188;-59
2023/08/09 08:05:31;;;;;;;0.00;0.00;;;17.70;99.90;;;;;;5095097;28;20241;-59
2023/08/09 08:07:56;;;;;;;0.00;0.00;;;17.70;99.90;;;;;;5094859;28;20202;-59
2023/08/09 08:10:22;;;;;;;0.00;0.00;;;17.70;99.90;;;;;;5094957;28;20226;-59
2023/08/09 08:12:49;;;;;;;0.00;0.00;;;17.80;99.90;;;;;;5094852;28;20199;-59
2023/08/09 08:15:15;;;;;;;0.00;0.00;;;17.90;99.90;;;;;;5094729;28;20245;-59
2023/08/09 08:17:41;;;;;;;0.00;0.00;;;17.90;99.90;;;;;;5093405;28;20218;-59
2023/08/09 08:20:15;;;;;;;0.00;0.00;;;17.90;99.90;;;;;;5094600;28;20168;-59
2023/08/09 08:22:44;;;;;;;0.00;0.00;;;18.00;99.90;;;;;;5094568;28;20589;-56
2023/08/09 08:25:10;;;;;;;0.00;0.00;;;18.00;99.90;;;;;;5094544;28;20191;-59
2023/08/09 08:27:36;;;;;;;0.00;0.00;;;17.90;99.90;;;;;;5094346;28;20172;-59
2023/08/09 08:30:04;;;;;;;0.00;0.00;;;18.00;99.90;;;;;;5094763;28;20623;-59
2023/08/09 08:32:31;;;;;;;0.00;0.00;;;18.00;99.90;;;;;;5094451;28;20700;-59
2023/08/09 08:34:56;;;;;;;0.00;0.00;;;18.00;99.90;;;;;;5094524;28;20184;-59
2023/08/09 08:37:22;;;;;;;0.00;0.00;;;18.00;99.90;;;;;;5094244;28;20203;-59
2023/08/09 08:39:48;;;;;;;0.00;0.00;;;18.00;99.90;;;;;;5094242;28;20172;-59
2023/08/09 08:42:14;;;;;;;0.00;0.00;;;18.00;99.90;;;;;;5094087;28;20190;-58
2023/08/09 08:44:40;;;;;;;0.00;0.00;;;18.10;99.90;;;;;;5094285;28;20219;-59
2023/08/09 08:47:06;;;;;;;0.00;0.00;;;18.10;99.90;;;;;;5094120;28;20675;-58
2023/08/09 08:49:34;;;;;;;0.00;0.00;;;18.20;99.90;;;;;;5094183;28;20187;-58
2023/08/09 08:52:05;;;;;;;0.00;0.00;;;18.20;99.90;;;;;;5094046;28;20176;-58
2023/08/09 08:54:30;;;;;;;0.00;0.00;;;18.30;99.90;;;;;;5094155;28;20743;-59
2023/08/09 08:56:56;;;;;;;0.00;0.00;;;18.40;99.90;;;;;;5093966;28;20216;-59
2023/08/09 08:59:22;;;;;;;0.00;0.00;;;18.40;99.90;;;;;;5093876;28;20180;-59
2023/08/09 09:01:48;;;;;;;0.30;0.30;;;18.50;99.90;;;;;;5093835;28;20183;-59
2023/08/09 09:04:14;;;;;;;0.00;0.00;;;18.50;99.90;;;;;;5093578;28;20213;-59
2023/08/09 09:06:40;;;;;;;0.00;0.00;;;18.50;99.90;;;;;;5093019;28;20533;-59
2023/08/09 09:09:14;;;;;;;0.00;0.00;;;18.50;99.90;;;;;;5093747;28;20597;-59
2023/08/09 09:11:40;;;;;;;0.00;0.00;;;18.60;99.90;;;;;;5093840;28;20339;-59
2023/08/09 09:14:15;;;;;;;0.00;0.00;;;18.70;99.90;;;;;;5093585;28;20180;-59
2023/08/09 09:16:42;;;;;;;0.00;0.00;;;18.70;99.90;;;;;;5093489;28;20572;-59
2023/08/09 09:19:08;;;;;;;0.00;0.00;;;18.40;99.90;;;;;;5093501;28;20199;-59
2023/08/09 09:21:35;;;;;;;0.00;0.00;;;18.30;99.90;;;;;;5092181;28;20642;-59
2023/08/09 09:24:08;;;;;;;0.00;0.00;;;18.20;99.90;;;;;;5093415;28;20160;-59
2023/08/09 09:26:35;;;;;;;0.00;0.00;;;18.10;99.90;;;;;;5093298;28;20191;-59
2023/08/09 09:29:00;;;;;;;0.00;0.00;;;18.10;99.90;;;;;;5093244;28;20223;-59
2023/08/09 09:31:44;;;;;;;0.00;0.00;;;18.20;99.90;;;;;;5093463;28;20203;-59
2023/08/09 09:34:10;;;;;;;0.00;0.00;;;18.20;99.90;;;;;;5093403;28;20164;-59
2023/08/09 09:36:48;;;;;;;0.00;0.00;;;18.30;99.90;;;;;;5091699;28;20269;-59
2023/08/09 09:39:14;;;;;;;0.00;0.00;;;18.50;99.90;;;;;;5092980;28;20237;-59
2023/08/09 09:41:46;;;;;;;0.00;0.00;;;18.70;99.90;;;;;;5093038;28;20548;-59
2023/08/09 09:44:12;;;;;;;0.00;0.00;;;19.10;99.90;;;;;;5092925;28;20225;-59
2023/08/09 09:46:41;;;;;;;0.00;0.00;;;19.30;99.90;;;;;;5093146;28;20184;-60
2023/08/09 09:49:06;;;;;;;0.00;0.00;;;19.50;99.90;;;;;;5092908;28;20819;-59
2023/08/09 09:51:33;;;;;;;0.00;0.00;;;19.70;99.90;;;;;;5092935;28;20272;-59
2023/08/09 09:53:59;;;;;;;0.00;0.00;;;19.80;99.90;;;;;;5091503;28;20180;-59
2023/08/09 09:56:25;;;;;;;0.00;0.00;;;19.90;99.90;;;;;;5092756;28;20204;-60
2023/08/09 09:58:51;;;;;;;0.00;0.00;;;19.80;99.90;;;;;;5092874;28;20230;-59
2023/08/09 10:01:22;;;;;;;0.00;0.00;;;19.80;99.90;;;;;;5092733;28;20180;-59
2023/08/09 10:03:51;;;;;;;0.00;0.00;;;19.90;99.90;;;;;;5091560;28;20180;-59
2023/08/09 10:06:29;;;;;;;0.00;0.00;;;19.90;99.90;;;;;;5092550;28;20191;-59
2023/08/09 10:08:58;;;;;;;0.00;0.00;;;19.80;99.90;;;;;;5092413;28;20176;-59
2023/08/09 10:11:28;;;;;;;0.00;0.00;;;19.70;99.90;;;;;;5092749;28;20591;-59
2023/08/09 10:13:56;;;;;;;0.00;0.00;;;19.70;99.90;;;;;;5092474;28;20579;-59
2023/08/09 10:16:24;;;;;;;0.00;0.00;;;19.60;99.90;;;;;;5092388;28;20207;-59
2023/08/09 10:18:57;;;;;;;0.00;0.00;;;19.50;99.90;;;;;;5092424;28;20222;-59
2023/08/09 10:21:23;;;;;;;0.00;0.00;;;19.30;99.90;;;;;;5092361;28;20179;-59
2023/08/09 10:23:57;;;;;;;0.00;0.00;;;19.20;99.90;;;;;;5092384;28;20266;-59
2023/08/09 10:26:28;;;;;;;0.00;0.00;;;19.10;99.90;;;;;;5092234;28;20194;-59
2023/08/09 10:29:01;;;;;;;0.00;0.00;;;19.10;99.90;;;;;;5090731;28;20231;-59
2023/08/09 10:31:51;;;;;;;0.00;0.00;;;19.00;99.90;;;;;;5092345;28;20184;-59
2023/08/09 10:34:20;;;;;;;0.00;0.00;;;19.00;99.90;;;;;;5092209;28;20188;-59
2023/08/09 10:36:50;;;;;;;0.00;0.00;;;19.10;99.90;;;;;;5092221;28;20234;-59
2023/08/09 10:39:18;;;;;;;0.00;0.00;;;19.30;99.90;;;;;;5092057;28;20177;-59
2023/08/09 10:41:58;;;;;;;0.00;0.00;;;19.40;99.90;;;;;;5092123;28;20663;-59
2023/08/09 10:44:33;;;;;;;0.00;0.00;;;19.50;99.90;;;;;;5092124;28;20221;-59
2023/08/09 10:47:14;;;;;;;0.00;0.00;;;19.50;99.90;;;;;;5092046;28;20207;-59
2023/08/09 10:49:49;;;;;;;0.00;0.00;;;19.50;99.90;;;;;;5092031;28;20699;-59
2023/08/09 10:52:20;;;;;;;0.00;0.00;;;19.50;99.90;;;;;;5091873;28;20206;-59
2023/08/09 10:54:49;;;;;;;0.00;0.00;;;19.50;99.90;;;;;;5091979;28;20180;-59
2023/08/09 10:57:16;;;;;;;0.00;0.00;;;19.60;99.90;;;;;;5090479;28;20227;-59
2023/08/09 10:59:46;;;;;;;0.00;0.00;;;19.70;99.90;;;;;;5091965;28;20222;-59
2023/08/09 11:02:16;;;;;;;0.00;0.00;;;19.90;99.90;;;;;;5091717;28;20184;-59
2023/08/09 11:04:43;;;;;;;0.00;0.00;;;19.90;99.90;;;;;;5091728;28;20728;-59
2023/08/09 11:07:19;;;;;;;0.00;0.00;;;20.00;99.90;;;;;;5091824;28;20225;-59
2023/08/09 11:09:44;;;;;;;0.00;0.00;;;20.00;99.90;;;;;;5091838;28;20657;-59
2023/08/09 11:12:14;;;;;;;0.00;0.00;;;20.20;99.90;;;;;;5091776;28;20176;-59
2023/08/09 11:14:39;;;;;;;0.00;0.00;;;20.40;99.90;;;;;;5091789;28;20175;-59
2023/08/09 11:17:12;;;;;;;0.00;0.00;;;20.50;99.90;;;;;;5091728;28;20215;-59
2023/08/09 11:19:38;;;;;;;0.00;0.00;;;20.80;99.90;;;;;;5091820;28;20176;-59
2023/08/09 11:22:03;;;;;;;0.00;0.00;;;20.90;99.90;;;;;;5091707;28;20176;-59
2023/08/09 11:24:29;;;;;;;0.00;0.00;;;21.10;99.90;;;;;;5091600;28;20588;-59
2023/08/09 11:26:56;;;;;;;0.35;0.22;;;21.10;99.90;;;;;;5091563;28;20183;-59
2023/08/09 11:29:25;;;;;;;0.00;0.00;;;21.30;99.90;;;;;;5092152;28;20243;-59
2023/08/09 11:31:56;;;;;;;0.00;0.00;;;21.40;99.90;;;;;;5095619;28;20215;-59
2023/08/09 11:34:23;;;;;;;0.00;0.00;;;21.60;99.90;;;;;;5095620;28;20172;-59
2023/08/09 11:36:52;;;;;;;0.00;0.00;;;21.90;99.90;;;;;;5095568;28;20204;-59
2023/08/09 11:39:21;;;;;;;0.00;0.00;;;22.10;99.90;;;;;;5094195;28;20516;-59
2023/08/09 11:41:56;;;;;;;0.00;0.00;;;22.30;99.90;;;;;;5095404;28;20512;-59
2023/08/09 11:44:27;;;;;;;0.00;0.00;;;22.40;99.90;;;;;;5095395;28;20168;-59
2023/08/09 11:46:54;;;;;;;0.00;0.00;;;22.70;99.90;;;;;;5095328;28;20176;-60
2023/08/09 11:49:30;;;;;;;0.00;0.00;;;22.90;99.90;;;;;;5095192;28;20176;-59
2023/08/09 11:51:56;;;;;;;0.00;0.00;;;23.20;99.90;;;;;;5095224;28;20172;-60
2023/08/09 11:54:23;;;;;;;0.00;0.00;;;23.30;99.90;;;;;;5095159;28;20240;-59
2023/08/09 11:56:49;;;;;;;0.00;0.00;;;23.40;99.90;;;;;;5095157;28;20298;-59
2023/08/09 11:59:19;;;;;;;0.00;0.00;;;23.50;99.90;;;;;;5095082;28;20614;-59
2023/08/09 12:01:47;;;;;;;0.00;0.00;;;23.80;99.90;;;;;;5095131;28;20251;-59
2023/08/09 12:04:19;;;;;;;0.00;0.00;;;23.80;99.90;;;;;;5094823;28;20168;-59
2023/08/09 12:06:50;;;;;;;0.00;0.00;;;23.70;99.90;;;;;;5095026;28;20191;-59
2023/08/09 12:09:30;;;;;;;0.00;0.00;;;23.80;99.90;;;;;;5094835;28;20179;-59
2023/08/09 12:12:02;;;;;;;0.00;0.00;;;23.60;99.90;;;;;;5094805;28;20183;-59
2023/08/09 12:14:28;;;;;;;0.00;0.00;;;23.60;99.90;;;;;;5094772;28;20168;-60
2023/08/09 12:16:54;;;;;;;0.00;0.00;;;23.50;99.90;;;;;;5094543;28;20573;-59
2023/08/09 12:19:20;;;;;;;0.00;0.00;;;23.40;99.90;;;;;;5094630;28;20204;-59
2023/08/09 12:21:45;;;;;;;0.00;0.00;;;23.10;99.90;;;;;;5094731;28;20728;-60
2023/08/09 12:24:11;;;;;;;0.00;0.00;;;23.00;99.90;;;;;;5094480;28;20203;-59
2023/08/09 12:26:37;;;;;;;0.00;0.00;;;22.70;99.90;;;;;;5094707;28;20546;-59
2023/08/09 12:29:03;;;;;;;0.00;0.00;;;22.50;99.90;;;;;;5094323;28;20584;-60
2023/08/09 12:31:29;;;;;;;0.00;0.00;;;22.30;99.90;;;;;;5094518;28;20180;-59
2023/08/09 12:33:55;;;;;;;0.20;0.20;;;22.20;99.90;;;;;;5094338;28;20245;-59
2023/08/09 12:36:21;;;;;;;0.00;0.00;;;22.20;99.90;;;;;;5094264;28;20215;-60
2023/08/09 12:38:47;;;;;;;0.00;0.00;;;22.10;99.90;;;;;;5094396;28;20263;-59
2023/08/09 12:41:13;;;;;;;0.00;0.00;;;22.10;99.90;;;;;;5092867;28;20587;-59
2023/08/09 12:43:38;;;;;;;0.00;0.00;;;22.10;99.90;;;;;;5094361;28;20729;-59
2023/08/09 12:46:04;;;;;;;0.00;0.00;;;22.30;99.90;;;;;;5094216;28;20229;-59
2023/08/09 12:48:29;;;;;;;0.00;0.00;;;22.50;99.90;;;;;;5094313;28;20176;-60